This is the latest recevied weather packets stored in our database for station/object es2jt. If no packets are shown the sender has not sent any weather packets the latest 10 day(s).
| Time | Temp. | Humidity | Pressure | Rain* | Wind** | Luminosity | Snow |
|---|---|---|---|---|---|---|---|
| 1778234678 | 16.11° C | 25% | 1021.1 hPa | 0 mm | - | - | - |
| 1778233058 | 16.67° C | 29% | 1021 hPa | 0 mm | - | - | - |
| 1778232108 | 16.11° C | 33% | 1021.2 hPa | 0 mm | - | - | - |
| 1778231439 | 15.56° C | 34% | 1021 hPa | 0 mm | - | - | - |
| 1778225088 | 13.33° C | 44% | 1020.7 hPa | 0 mm | - | - | - |
| 1778222390 | 13.33° C | 44% | 1020.4 hPa | 0 mm | - | - | - |
| 1778216451 | 10° C | 58% | 1019.2 hPa | 0 mm | - | - | - |
| 1778215778 | 8.33° C | 63% | 1019.1 hPa | 0 mm | - | - | - |
| 1778213617 | 7.22° C | 63% | 1018.6 hPa | 0 mm | - | - | - |
| 1778209969 | 6.67° C | 72% | 1018 hPa | 0 mm | - | - | - |
| 1778209431 | 6.11° C | 74% | 1017.6 hPa | 0 mm | - | - | - |
| 1778208758 | 5.56° C | 77% | 1017.5 hPa | 0 mm | - | - | - |
| 1778202949 | 3.33° C | 75% | 1016.2 hPa | 0 mm | - | - | - |
| 1778199708 | 5° C | 70% | 1015.8 hPa | 0 mm | - | - | - |
| 1778193097 | 5° C | 70% | 1014.4 hPa | 0 mm | - | - | - |
| 1778191477 | 1.11° C | 79% | 1013.8 hPa | 0 mm | - | - | - |
| 1778189317 | 2.22° C | 75% | 1013.5 hPa | 0 mm | - | - | - |
| 1778187697 | 2.22° C | 72% | 1013 hPa | 0 mm | - | - | - |
| 1778187158 | 1.67° C | 71% | 1012.9 hPa | 0 mm | - | - | - |
| 1778178446 | 6.67° C | 49% | 1011.8 hPa | 0 mm | - | - | - |
| 1778175746 | 9.44° C | 44% | 1011.4 hPa | 0 mm | - | - | - |
| 1778175206 | 10.56° C | 38% | 1011.2 hPa | 0 mm | - | - | - |
| 1778171426 | 12.22° C | 31% | 1010.7 hPa | 0 mm | - | - | - |
| 1778170347 | 13.89° C | 32% | 1010.5 hPa | 0 mm | - | - | - |
| 1778168727 | 12.78° C | 35% | 1010.5 hPa | 0 mm | - | - | - |
* Rain latest hour (hover to see other rain measurements)
** Current wind speed in m/s (hover to see current wind gust speed)